createdAt,value
2022-07-27T00:01:51.342Z,18.10
2022-07-27T00:04:19.442Z,18.10
2022-07-27T00:06:47.774Z,18.00
2022-07-27T00:09:14.984Z,17.90
2022-07-27T00:11:42.097Z,17.80
2022-07-27T00:14:08.895Z,17.80
2022-07-27T00:16:35.680Z,17.70
2022-07-27T00:19:02.793Z,17.70
2022-07-27T00:21:29.530Z,17.70
2022-07-27T00:23:56.584Z,17.60
2022-07-27T00:26:23.541Z,17.60
2022-07-27T00:28:50.654Z,17.60
2022-07-27T00:31:18.021Z,17.60
2022-07-27T00:33:44.955Z,17.60
2022-07-27T00:36:12.394Z,17.60
2022-07-27T00:38:39.315Z,17.60
2022-07-27T00:41:06.244Z,17.60
2022-07-27T00:43:33.967Z,17.60
2022-07-27T00:46:04.828Z,17.50
2022-07-27T00:48:31.953Z,17.50
2022-07-27T00:50:59.308Z,17.40
2022-07-27T00:53:26.347Z,17.40
2022-07-27T00:55:53.189Z,17.40
2022-07-27T00:58:19.954Z,17.30
2022-07-27T01:00:46.741Z,17.30
2022-07-27T01:03:16.196Z,17.30
2022-07-27T01:05:44.191Z,17.30
2022-07-27T01:08:12.873Z,17.20
2022-07-27T01:10:40.561Z,17.20
2022-07-27T01:13:12.632Z,17.20
2022-07-27T01:15:40.916Z,17.20
2022-07-27T01:18:12.562Z,17.20
2022-07-27T01:20:43.047Z,17.20
2022-07-27T01:23:11.003Z,17.10
2022-07-27T01:25:40.230Z,17.10
2022-07-27T01:28:06.944Z,17.10
2022-07-27T01:30:35.529Z,17.10
2022-07-27T01:33:07.128Z,17.00
2022-07-27T01:35:34.830Z,17.00
2022-07-27T01:38:01.739Z,17.00
2022-07-27T01:40:28.533Z,17.00
2022-07-27T01:42:55.373Z,17.00
2022-07-27T01:45:22.370Z,17.00
2022-07-27T01:47:49.327Z,17.00
2022-07-27T01:50:16.434Z,17.00
2022-07-27T01:52:43.249Z,16.90
2022-07-27T01:55:11.104Z,16.80
2022-07-27T01:57:39.089Z,16.80
2022-07-27T02:00:08.453Z,16.80
2022-07-27T02:02:35.194Z,16.70
2022-07-27T02:05:02.316Z,16.70
2022-07-27T02:07:29.108Z,16.60
2022-07-27T02:09:55.854Z,16.60
2022-07-27T02:12:37.753Z,16.60
2022-07-27T02:15:15.426Z,16.60
2022-07-27T02:17:44.020Z,16.50
2022-07-27T02:20:14.307Z,16.50
2022-07-27T02:22:41.241Z,16.40
2022-07-27T02:25:08.998Z,16.40
2022-07-27T02:27:36.155Z,16.30
2022-07-27T02:30:04.299Z,16.30
2022-07-27T02:32:31.147Z,16.20
2022-07-27T02:34:57.921Z,16.20
2022-07-27T02:37:24.975Z,16.20
2022-07-27T02:39:53.018Z,16.20
2022-07-27T02:42:20.586Z,16.10
2022-07-27T02:44:47.383Z,16.10
2022-07-27T02:47:14.208Z,16.00
2022-07-27T02:49:40.933Z,16.00
2022-07-27T02:52:07.782Z,15.90
2022-07-27T02:54:34.962Z,15.90
2022-07-27T02:57:05.347Z,15.90
2022-07-27T02:59:32.407Z,15.90
2022-07-27T03:01:59.210Z,15.90
2022-07-27T03:04:26.295Z,15.90
2022-07-27T03:06:53.338Z,15.90
2022-07-27T03:09:20.140Z,15.90
2022-07-27T03:11:59.730Z,15.80
2022-07-27T03:14:26.484Z,15.80
2022-07-27T03:16:53.559Z,15.80
2022-07-27T03:19:20.396Z,15.80
2022-07-27T03:21:47.373Z,15.70
2022-07-27T03:24:14.127Z,15.80
2022-07-27T03:26:40.926Z,15.70
2022-07-27T03:29:07.761Z,15.70
2022-07-27T03:31:34.637Z,15.60
2022-07-27T03:34:02.179Z,15.60
2022-07-27T03:36:29.161Z,15.50
2022-07-27T03:38:58.040Z,15.50
2022-07-27T03:41:25.800Z,15.50
2022-07-27T03:43:52.565Z,15.50
2022-07-27T03:46:19.380Z,15.50
2022-07-27T03:48:46.195Z,15.40
2022-07-27T03:51:13.626Z,15.40
2022-07-27T03:53:40.979Z,15.40
2022-07-27T03:56:07.828Z,15.40
2022-07-27T03:58:34.587Z,15.30
2022-07-27T04:01:01.381Z,15.30
2022-07-27T04:03:28.144Z,15.30
2022-07-27T04:05:55.122Z,15.30
2022-07-27T04:08:21.920Z,15.20
2022-07-27T04:10:48.792Z,15.20
2022-07-27T04:13:16.022Z,15.20
2022-07-27T04:15:44.659Z,15.20
2022-07-27T04:18:11.434Z,15.20
2022-07-27T04:20:38.219Z,15.20
2022-07-27T04:23:05.072Z,15.10
2022-07-27T04:25:31.898Z,15.10
2022-07-27T04:27:58.781Z,15.10
2022-07-27T04:30:25.760Z,15.10
2022-07-27T04:32:53.032Z,15.10
2022-07-27T04:35:25.733Z,15.00
2022-07-27T04:37:58.787Z,15.00
2022-07-27T04:40:29.286Z,14.90
2022-07-27T04:42:56.194Z,14.90
2022-07-27T04:45:22.948Z,15.00
2022-07-27T04:47:49.774Z,14.90
2022-07-27T04:50:16.648Z,15.00
2022-07-27T04:52:43.450Z,15.00
2022-07-27T04:55:10.359Z,15.10
2022-07-27T04:57:37.241Z,15.00
2022-07-27T05:00:07.851Z,15.00
2022-07-27T05:02:34.627Z,15.00
2022-07-27T05:05:01.366Z,15.00
2022-07-27T05:07:28.178Z,15.00
2022-07-27T05:09:54.915Z,14.90
2022-07-27T05:12:21.664Z,15.00
2022-07-27T05:14:48.475Z,14.90
2022-07-27T05:17:15.259Z,14.90
2022-07-27T05:19:42.006Z,15.00
2022-07-27T05:22:09.677Z,14.90
2022-07-27T05:24:36.697Z,15.00
2022-07-27T05:27:03.606Z,15.00
2022-07-27T05:29:30.359Z,15.00
2022-07-27T05:31:57.186Z,15.10
2022-07-27T05:34:24.061Z,15.20
2022-07-27T05:36:50.789Z,15.20
2022-07-27T05:39:17.814Z,15.20
2022-07-27T05:41:44.761Z,15.30
2022-07-27T05:44:11.494Z,15.30
2022-07-27T05:46:38.203Z,15.30
2022-07-27T05:49:05.115Z,15.40
2022-07-27T05:51:32.156Z,15.40
2022-07-27T05:53:59.734Z,15.40
2022-07-27T05:56:27.552Z,15.40
2022-07-27T05:58:54.720Z,15.40
2022-07-27T06:01:21.636Z,15.50
2022-07-27T06:03:48.762Z,15.60
2022-07-27T06:06:34.163Z,15.70
2022-07-27T06:09:02.173Z,15.60
2022-07-27T06:11:29.049Z,15.70
2022-07-27T06:13:56.065Z,15.70
2022-07-27T06:16:23.658Z,15.80
2022-07-27T06:18:50.650Z,15.90
2022-07-27T06:21:17.513Z,15.90
2022-07-27T06:23:44.627Z,16.00
2022-07-27T06:26:11.403Z,16.10
2022-07-27T06:28:38.130Z,16.20
2022-07-27T06:31:05.084Z,16.30
2022-07-27T06:33:33.516Z,16.30
2022-07-27T06:36:01.412Z,16.30
2022-07-27T06:38:28.696Z,16.40
2022-07-27T06:40:56.038Z,16.50
2022-07-27T06:43:28.590Z,16.60
2022-07-27T06:45:55.544Z,16.60
2022-07-27T06:48:22.633Z,16.70
2022-07-27T06:50:50.188Z,16.80
2022-07-27T06:53:20.854Z,16.80
2022-07-27T06:55:48.523Z,16.90
2022-07-27T06:58:15.276Z,16.90
2022-07-27T07:00:42.132Z,16.90
2022-07-27T07:03:09.034Z,17.00
2022-07-27T07:05:45.416Z,16.90
2022-07-27T07:08:13.192Z,16.90
2022-07-27T07:10:41.650Z,17.10
2022-07-27T07:13:08.924Z,17.30
2022-07-27T07:15:37.927Z,17.40
2022-07-27T07:18:06.586Z,17.50
2022-07-27T07:20:34.710Z,17.50
2022-07-27T07:23:01.809Z,17.50
2022-07-27T07:25:29.036Z,17.60
2022-07-27T07:27:56.139Z,17.70
2022-07-27T07:30:23.584Z,17.70
2022-07-27T07:32:50.675Z,17.70
2022-07-27T07:35:17.974Z,17.70
2022-07-27T07:37:44.890Z,17.70
2022-07-27T07:43:04.814Z,18.00
2022-07-27T07:45:34.001Z,18.20
2022-07-27T07:48:00.907Z,18.30
2022-07-27T07:50:28.111Z,18.40
2022-07-27T07:52:55.383Z,18.40
2022-07-27T07:55:24.104Z,18.50
2022-07-27T07:57:50.969Z,18.50
2022-07-27T08:00:20.142Z,18.40
2022-07-27T08:02:54.639Z,18.60
2022-07-27T08:05:22.051Z,18.70
2022-07-27T08:07:50.033Z,18.70
2022-07-27T08:10:18.318Z,18.70
2022-07-27T08:12:48.783Z,18.70
2022-07-27T08:15:16.679Z,18.90
2022-07-27T08:17:43.970Z,19.00
2022-07-27T08:20:12.589Z,19.10
2022-07-27T08:22:39.527Z,19.20
2022-07-27T08:25:07.340Z,19.20
2022-07-27T08:27:40.340Z,19.30
2022-07-27T08:30:09.072Z,19.40
2022-07-27T08:33:01.113Z,19.40
2022-07-27T08:35:29.500Z,19.50
2022-07-27T08:37:57.466Z,19.50
2022-07-27T08:40:43.306Z,19.60
2022-07-27T08:43:18.906Z,19.70
2022-07-27T08:45:56.369Z,19.90
2022-07-27T08:48:25.813Z,20.10
2022-07-27T08:50:53.089Z,20.10
2022-07-27T08:53:22.101Z,20.10
2022-07-27T08:55:49.195Z,20.30
2022-07-27T08:58:16.295Z,20.40
2022-07-27T09:00:46.470Z,20.60
2022-07-27T09:03:18.925Z,20.60
2022-07-27T09:05:49.652Z,20.70
2022-07-27T09:08:21.366Z,20.60
2022-07-27T09:10:48.473Z,20.70
2022-07-27T09:13:30.127Z,20.90
2022-07-27T09:16:17.425Z,21.20
2022-07-27T09:18:45.531Z,21.40
2022-07-27T09:21:12.317Z,21.60
2022-07-27T09:23:41.782Z,21.80
2022-07-27T09:26:35.878Z,21.50
2022-07-27T09:29:04.836Z,21.10
2022-07-27T09:31:32.877Z,20.70
2022-07-27T09:34:01.700Z,20.40
2022-07-27T09:36:30.679Z,20.20
2022-07-27T09:39:06.640Z,20.30
2022-07-27T09:41:42.677Z,20.50
2022-07-27T09:46:56.892Z,20.10
2022-07-27T09:49:35.400Z,20.00
2022-07-27T09:52:04.291Z,20.00
2022-07-27T09:54:47.024Z,20.00
2022-07-27T09:57:13.998Z,20.00
2022-07-27T09:59:41.028Z,20.10
2022-07-27T10:02:08.201Z,20.30
2022-07-27T10:04:35.100Z,20.50
2022-07-27T10:07:05.269Z,20.40
2022-07-27T10:09:35.089Z,20.50
2022-07-27T10:12:04.580Z,20.60
2022-07-27T10:14:32.793Z,20.60
2022-07-27T10:16:59.968Z,20.60
2022-07-27T10:19:29.804Z,20.60
2022-07-27T10:21:56.566Z,20.70
2022-07-27T10:24:34.713Z,20.70
2022-07-27T10:27:34.014Z,20.70
2022-07-27T10:30:00.780Z,20.70
2022-07-27T10:32:37.190Z,20.70
2022-07-27T10:35:04.250Z,20.90
2022-07-27T10:37:33.647Z,21.00
2022-07-27T10:40:24.935Z,21.20
2022-07-27T10:43:06.791Z,21.10
2022-07-27T10:46:00.253Z,21.30
2022-07-27T10:48:48.312Z,21.30
2022-07-27T10:51:16.929Z,21.20
2022-07-27T10:56:46.577Z,21.10
2022-07-27T10:59:13.483Z,21.20
2022-07-27T11:01:57.355Z,21.30
2022-07-27T11:04:24.757Z,21.30
2022-07-27T11:07:23.485Z,21.50
2022-07-27T11:12:31.387Z,21.30
2022-07-27T11:15:01.720Z,21.50
2022-07-27T11:17:54.688Z,21.80
2022-07-27T11:20:23.661Z,22.20
2022-07-27T11:25:37.305Z,21.90
2022-07-27T11:28:09.581Z,21.80
2022-07-27T11:30:36.466Z,21.60
2022-07-27T11:33:07.167Z,21.70
2022-07-27T11:35:34.346Z,21.60
2022-07-27T11:38:04.279Z,21.50
2022-07-27T11:43:34.251Z,21.60
2022-07-27T11:46:23.049Z,21.80
2022-07-27T11:49:17.472Z,21.90
2022-07-27T11:51:46.399Z,22.10
2022-07-27T11:54:22.243Z,22.00
2022-07-27T11:56:51.882Z,22.30
2022-07-27T11:59:21.258Z,22.50
2022-07-27T12:01:59.824Z,22.10
2022-07-27T12:04:31.705Z,22.30
2022-07-27T12:07:12.436Z,22.30
2022-07-27T12:09:46.327Z,22.10
2022-07-27T12:12:20.043Z,21.90
2022-07-27T12:14:48.972Z,21.80
2022-07-27T12:17:26.830Z,21.70
2022-07-27T12:20:20.427Z,21.70
2022-07-27T12:22:49.455Z,21.60
2022-07-27T12:25:19.016Z,22.10
2022-07-27T12:28:00.944Z,22.50
2022-07-27T12:30:39.497Z,22.80
2022-07-27T12:33:27.791Z,22.60
2022-07-27T12:35:55.567Z,22.10
2022-07-27T12:38:22.458Z,22.10
2022-07-27T12:40:59.806Z,22.30
2022-07-27T12:43:27.501Z,22.30
2022-07-27T12:45:55.431Z,22.30
2022-07-27T12:48:27.361Z,22.70
2022-07-27T12:51:02.463Z,23.00
2022-07-27T12:53:30.194Z,23.00
2022-07-27T12:56:00.606Z,22.50
2022-07-27T12:58:28.314Z,22.90
2022-07-27T13:00:55.147Z,23.60
2022-07-27T13:03:22.210Z,24.10
2022-07-27T13:05:49.060Z,24.50
2022-07-27T13:08:16.477Z,24.50
2022-07-27T13:10:44.566Z,24.40
2022-07-27T13:13:11.858Z,23.90
2022-07-27T13:15:38.807Z,23.50
2022-07-27T13:18:05.814Z,23.10
2022-07-27T13:20:35.261Z,22.90
2022-07-27T13:23:02.015Z,22.70
2022-07-27T13:25:30.775Z,22.70
2022-07-27T13:27:57.557Z,23.00
2022-07-27T13:30:25.085Z,22.80
2022-07-27T13:32:54.185Z,22.70
2022-07-27T13:35:21.013Z,22.80
2022-07-27T13:37:47.709Z,23.60
2022-07-27T13:40:14.929Z,24.40
2022-07-27T13:42:41.710Z,24.60
2022-07-27T13:45:10.807Z,23.90
2022-07-27T13:47:39.850Z,23.60
2022-07-27T13:50:13.646Z,23.30
2022-07-27T13:52:45.053Z,23.00
2022-07-27T13:55:14.548Z,23.50
2022-07-27T13:57:41.582Z,24.60
2022-07-27T14:00:09.047Z,24.80
2022-07-27T14:02:35.924Z,24.80
2022-07-27T14:05:05.895Z,24.50
2022-07-27T14:07:33.257Z,24.40
2022-07-27T14:10:18.532Z,23.80
2022-07-27T14:12:45.330Z,23.50
2022-07-27T14:15:12.143Z,23.20
2022-07-27T14:17:38.937Z,23.30
2022-07-27T14:20:06.587Z,23.10
2022-07-27T14:22:33.348Z,23.10
2022-07-27T14:25:00.154Z,22.80
2022-07-27T14:27:26.983Z,23.00
2022-07-27T14:30:06.824Z,23.10
2022-07-27T14:32:34.367Z,23.10
2022-07-27T14:35:01.488Z,23.30
2022-07-27T14:37:28.272Z,23.40
2022-07-27T14:39:55.115Z,23.40
2022-07-27T14:42:23.834Z,23.30
2022-07-27T14:44:50.729Z,23.20
2022-07-27T14:47:17.966Z,23.20
2022-07-27T14:49:44.855Z,23.20
2022-07-27T14:52:14.746Z,23.00
2022-07-27T14:54:42.859Z,22.80
2022-07-27T14:57:09.648Z,22.70
2022-07-27T14:59:36.623Z,22.60
2022-07-27T15:02:04.273Z,22.60
2022-07-27T15:04:31.678Z,22.50
2022-07-27T15:06:58.838Z,22.50
2022-07-27T15:09:28.432Z,22.40
2022-07-27T15:11:55.468Z,22.40
2022-07-27T15:14:23.216Z,22.20
2022-07-27T15:16:51.073Z,22.10
2022-07-27T15:19:17.932Z,22.20
2022-07-27T15:21:44.785Z,22.20
2022-07-27T15:24:11.913Z,22.20
2022-07-27T15:26:39.381Z,22.10
2022-07-27T15:29:06.211Z,22.10
2022-07-27T15:31:33.080Z,22.10
2022-07-27T15:34:00.254Z,22.30
2022-07-27T15:36:33.169Z,22.40
2022-07-27T15:39:00.807Z,22.60
2022-07-27T15:41:27.636Z,22.50
2022-07-27T15:43:55.534Z,22.40
2022-07-27T15:46:27.256Z,22.40
2022-07-27T15:48:55.185Z,22.30
2022-07-27T15:51:22.009Z,22.10
2022-07-27T15:53:48.778Z,22.00
2022-07-27T15:56:15.582Z,22.00
2022-07-27T15:58:42.627Z,22.00
2022-07-27T16:01:12.047Z,22.30
2022-07-27T16:03:39.383Z,22.40
2022-07-27T16:06:06.199Z,22.40
2022-07-27T16:08:33.121Z,22.50
2022-07-27T16:10:59.937Z,22.40
2022-07-27T16:13:26.675Z,22.40
2022-07-27T16:16:12.056Z,22.50
2022-07-27T16:18:39.346Z,22.60
2022-07-27T16:21:07.082Z,22.50
2022-07-27T16:23:33.836Z,22.60
2022-07-27T16:26:05.790Z,22.70
2022-07-27T16:28:35.833Z,22.70
2022-07-27T16:31:03.526Z,22.80
2022-07-27T16:33:30.558Z,22.80
2022-07-27T16:35:57.688Z,22.90
2022-07-27T16:38:25.528Z,23.00
2022-07-27T16:40:52.271Z,22.80
2022-07-27T16:43:19.103Z,22.80
2022-07-27T16:45:45.798Z,22.80
2022-07-27T16:48:12.887Z,22.90
2022-07-27T16:50:40.473Z,22.80
2022-07-27T16:53:07.316Z,22.80
2022-07-27T16:55:34.143Z,22.70
2022-07-27T16:58:00.887Z,22.70
2022-07-27T17:00:27.701Z,22.70
2022-07-27T17:02:54.957Z,22.50
2022-07-27T17:05:22.035Z,22.40
2022-07-27T17:07:52.193Z,22.50
2022-07-27T17:10:26.852Z,22.50
2022-07-27T17:12:55.781Z,22.50
2022-07-27T17:15:25.135Z,22.40
2022-07-27T17:17:52.311Z,22.30
2022-07-27T17:20:34.947Z,22.30
2022-07-27T17:23:03.872Z,22.30
2022-07-27T17:25:30.794Z,22.30
2022-07-27T17:27:58.179Z,22.30
2022-07-27T17:30:25.107Z,22.20
2022-07-27T17:32:53.295Z,22.20
2022-07-27T17:35:20.186Z,22.20
2022-07-27T17:38:05.105Z,22.20
2022-07-27T17:40:32.771Z,22.00
2022-07-27T17:42:59.541Z,21.80
2022-07-27T17:45:26.523Z,21.70
2022-07-27T17:47:53.384Z,21.70
2022-07-27T17:50:20.173Z,21.80
2022-07-27T17:52:46.943Z,21.70
2022-07-27T17:55:13.788Z,21.70
2022-07-27T17:57:40.499Z,21.70
2022-07-27T18:00:09.672Z,21.60
2022-07-27T18:02:36.543Z,21.50
2022-07-27T18:05:03.785Z,21.50
2022-07-27T18:07:30.584Z,21.50
2022-07-27T18:10:07.517Z,21.50
2022-07-27T18:12:35.128Z,21.50
2022-07-27T18:15:20.559Z,21.60
2022-07-27T18:17:47.294Z,21.60
2022-07-27T18:20:14.293Z,21.50
2022-07-27T18:22:41.018Z,21.50
2022-07-27T18:25:09.092Z,21.50
2022-07-27T18:27:36.188Z,21.50
2022-07-27T18:30:05.754Z,21.60
2022-07-27T18:32:33.538Z,21.60
2022-07-27T18:35:01.633Z,21.60
2022-07-27T18:37:28.556Z,21.60
2022-07-27T18:39:55.403Z,21.60
2022-07-27T18:42:22.311Z,21.50
2022-07-27T18:44:49.058Z,21.50
2022-07-27T18:47:15.823Z,21.50
2022-07-27T18:49:42.660Z,21.40
2022-07-27T18:52:09.395Z,21.40
2022-07-27T18:54:36.134Z,21.30
2022-07-27T18:57:03.115Z,21.20
2022-07-27T18:59:30.106Z,21.20
2022-07-27T19:01:56.968Z,21.10
2022-07-27T19:04:24.797Z,21.00
2022-07-27T19:06:52.656Z,21.00
2022-07-27T19:09:19.410Z,20.90
2022-07-27T19:11:46.189Z,20.90
2022-07-27T19:14:13.008Z,20.80
2022-07-27T19:16:39.958Z,20.80
2022-07-27T19:19:12.065Z,20.70
2022-07-27T19:21:41.809Z,20.60
2022-07-27T19:24:08.586Z,20.50
2022-07-27T19:26:35.500Z,20.40
2022-07-27T19:29:02.203Z,20.40
2022-07-27T19:31:29.121Z,20.40
2022-07-27T19:33:56.149Z,20.30
2022-07-27T19:36:23.328Z,20.30
2022-07-27T19:38:50.983Z,20.20
2022-07-27T19:41:18.278Z,20.20
2022-07-27T19:43:45.136Z,20.10
2022-07-27T19:46:12.152Z,20.00
2022-07-27T19:48:38.925Z,20.00
2022-07-27T19:51:07.323Z,20.00
2022-07-27T19:53:35.530Z,20.00
2022-07-27T19:56:03.067Z,19.90
2022-07-27T19:58:31.335Z,19.90
2022-07-27T20:00:58.644Z,19.80
2022-07-27T20:03:25.766Z,19.80
2022-07-27T20:05:52.702Z,19.80
2022-07-27T20:08:19.526Z,19.80
2022-07-27T20:10:47.472Z,19.70
2022-07-27T20:13:14.706Z,19.70
2022-07-27T20:15:41.633Z,19.60
2022-07-27T20:18:08.530Z,19.60
2022-07-27T20:20:35.353Z,19.60
2022-07-27T20:23:02.131Z,19.60
2022-07-27T20:25:28.891Z,19.50
2022-07-27T20:27:55.619Z,19.50
2022-07-27T20:30:22.539Z,19.50
2022-07-27T20:32:50.360Z,19.40
2022-07-27T20:35:18.111Z,19.40
2022-07-27T20:37:45.866Z,19.40
2022-07-27T20:40:12.997Z,19.30
2022-07-27T20:42:43.471Z,19.30
2022-07-27T20:45:11.562Z,19.20
2022-07-27T20:47:38.861Z,19.20
2022-07-27T20:50:08.252Z,19.10
2022-07-27T20:52:35.301Z,19.10
2022-07-27T20:55:02.116Z,19.10
2022-07-27T20:57:28.873Z,19.00
2022-07-27T20:59:55.707Z,19.00
2022-07-27T21:02:22.509Z,19.00
2022-07-27T21:04:49.350Z,19.00
2022-07-27T21:07:16.142Z,18.90
2022-07-27T21:09:42.868Z,18.90
2022-07-27T21:12:09.634Z,18.90
2022-07-27T21:14:36.465Z,18.90
2022-07-27T21:17:03.281Z,18.80
2022-07-27T21:19:30.166Z,18.80
2022-07-27T21:21:56.962Z,18.70
2022-07-27T21:24:23.832Z,18.70
2022-07-27T21:26:52.344Z,18.70
2022-07-27T21:29:21.204Z,18.60
2022-07-27T21:31:50.078Z,18.60
2022-07-27T21:34:19.395Z,18.50
2022-07-27T21:36:47.094Z,18.50
2022-07-27T21:39:14.325Z,18.40
2022-07-27T21:41:41.390Z,18.40
2022-07-27T21:44:08.264Z,18.40
2022-07-27T21:46:35.104Z,18.30
2022-07-27T21:49:01.920Z,18.30
2022-07-27T21:51:28.762Z,18.20
2022-07-27T21:53:56.755Z,18.20
2022-07-27T21:56:24.480Z,18.20
2022-07-27T21:58:51.246Z,18.20
2022-07-27T22:01:18.289Z,18.10
2022-07-27T22:03:45.156Z,18.10
2022-07-27T22:06:13.029Z,18.10
2022-07-27T22:08:39.812Z,18.00
2022-07-27T22:11:06.646Z,18.00
2022-07-27T22:13:33.767Z,18.00
2022-07-27T22:16:00.916Z,18.00
2022-07-27T22:18:28.794Z,18.00
2022-07-27T22:20:56.158Z,18.00
2022-07-27T22:23:23.693Z,18.00
2022-07-27T22:25:51.102Z,17.90
2022-07-27T22:28:17.911Z,17.90
2022-07-27T22:31:00.106Z,17.90
2022-07-27T22:33:31.410Z,17.90
2022-07-27T22:35:58.134Z,17.90
2022-07-27T22:38:24.886Z,17.80
2022-07-27T22:40:56.121Z,17.80
2022-07-27T22:43:23.154Z,17.70
2022-07-27T22:45:50.470Z,17.70
2022-07-27T22:48:17.416Z,17.70
2022-07-27T22:50:45.520Z,17.70
2022-07-27T22:53:12.297Z,17.70
2022-07-27T22:55:39.362Z,17.70
2022-07-27T22:58:06.474Z,17.70
2022-07-27T23:00:33.514Z,17.60
2022-07-27T23:03:01.045Z,17.60
2022-07-27T23:05:27.918Z,17.60
2022-07-27T23:07:54.707Z,17.60
2022-07-27T23:10:40.066Z,17.60
2022-07-27T23:13:06.757Z,17.60
2022-07-27T23:15:33.622Z,17.60
2022-07-27T23:18:00.456Z,17.60
2022-07-27T23:20:27.205Z,17.60
2022-07-27T23:22:53.975Z,17.60
2022-07-27T23:25:21.975Z,17.50
2022-07-27T23:27:49.434Z,17.50
2022-07-27T23:30:16.450Z,17.50
2022-07-27T23:32:43.263Z,17.50
2022-07-27T23:35:10.374Z,17.50
2022-07-27T23:37:37.316Z,17.50
2022-07-27T23:40:05.281Z,17.40
2022-07-27T23:42:32.066Z,17.40
2022-07-27T23:44:58.851Z,17.40
2022-07-27T23:47:25.590Z,17.40
2022-07-27T23:49:52.378Z,17.30
2022-07-27T23:52:19.447Z,17.30
2022-07-27T23:54:46.194Z,17.30
2022-07-27T23:57:13.117Z,17.30
2022-07-27T23:59:39.939Z,17.30
